KELY/ELY METAR and TAF weather

Enter ICAO airport designator
Station Type Date Time Source
KELY METAR 2021/05/12 01:53 UTC NOAA

KELY 120153Z AUTO 03008KT 10SM CLR 17/M14 A3012 RMK AO2 SLP155 T01671144


Station Type Date Time Source
KELY Decoded METAR 2021/05/12 01:53 UTC NOAA

ELY AIRPORT (YELLAND FIELD), NV, United States (KELY) 39-18N 114-51W 1906M
May 11, 2021 - 09:53 PM EDT / 2021.05.12 0153 UTC
Wind: from the NNE (030 degrees) at 9 MPH (8 KT):0
Visibility: 10 mile(s):0
Sky conditions: clear
Temperature: 62.1 F (16.7 C)
Dew Point: 6.1 F (-14.4 C)
Relative Humidity: 10%
Pressure (altimeter): 30.12 in. Hg (1019 hPa)
ob: KELY 120153Z AUTO 03008KT 10SM CLR 17/M14 A3012 RMK AO2 SLP155 T01671144
cycle: 2

Station Type Date Time Source
KELY TAF 2021/05/11 19:52 UTC NOAA

TAF KELY 111850Z 1119/1218 VRB06KT P6SM SKC
FM120400 18009KT P6SM FEW200

Example: see airport list